createdAt,value
2019-04-25T00:00:46.475Z,82.88
2019-04-25T00:03:18.894Z,82.42
2019-04-25T00:05:50.080Z,81.57
2019-04-25T00:08:21.525Z,81.28
2019-04-25T00:10:52.764Z,82.79
2019-04-25T00:13:24.330Z,81.96
2019-04-25T00:15:55.536Z,81.54
2019-04-25T00:18:26.995Z,81.65
2019-04-25T00:21:02.674Z,82.50
2019-04-25T00:23:34.732Z,82.95
2019-04-25T00:26:21.085Z,83.72
2019-04-25T00:28:53.220Z,83.94
2019-04-25T00:31:26.051Z,83.75
2019-04-25T00:33:57.381Z,83.50
2019-04-25T00:36:28.687Z,82.73
2019-04-25T00:39:01.813Z,82.03
2019-04-25T00:41:34.170Z,82.76
2019-04-25T00:44:06.253Z,83.22
2019-04-25T00:46:37.597Z,83.62
2019-04-25T00:49:08.694Z,83.58
2019-04-25T00:51:39.964Z,82.64
2019-04-25T00:54:11.855Z,83.13
2019-04-25T00:56:45.819Z,83.86
2019-04-25T00:59:28.394Z,83.89
2019-04-25T01:02:21.445Z,84.52
2019-04-25T01:04:53.909Z,83.86
2019-04-25T01:07:25.545Z,83.83
2019-04-25T01:09:57.199Z,84.42
2019-04-25T01:12:28.531Z,84.69
2019-04-25T01:15:01.517Z,84.92
2019-04-25T01:17:33.254Z,85.13
2019-04-25T01:20:08.125Z,85.37
2019-04-25T01:22:39.264Z,85.93
2019-04-25T01:25:11.765Z,85.87
2019-04-25T01:27:43.302Z,86.30
2019-04-25T01:30:16.309Z,86.69
2019-04-25T01:32:48.295Z,86.97
2019-04-25T01:35:25.810Z,87.34
2019-04-25T01:38:24.954Z,87.87
2019-04-25T01:41:14.479Z,87.52
2019-04-25T01:43:59.693Z,87.65
2019-04-25T01:46:31.663Z,88.10
2019-04-25T01:49:04.314Z,87.89
2019-04-25T01:51:36.224Z,87.81
2019-04-25T01:54:07.384Z,88.05
2019-04-25T01:56:38.631Z,87.97
2019-04-25T01:59:09.963Z,87.80
2019-04-25T02:01:41.612Z,87.12
2019-04-25T02:04:13.266Z,87.30
2019-04-25T02:06:44.621Z,87.20
2019-04-25T02:09:15.876Z,85.91
2019-04-25T02:11:55.667Z,84.81
2019-04-25T02:14:26.889Z,84.42
2019-04-25T02:16:58.476Z,83.10
2019-04-25T02:19:29.667Z,83.09
2019-04-25T02:22:00.888Z,82.17
2019-04-25T02:24:33.714Z,81.96
2019-04-25T02:27:05.171Z,81.06
2019-04-25T02:29:36.434Z,81.09
2019-04-25T02:32:09.079Z,80.71
2019-04-25T02:34:45.273Z,80.11
2019-04-25T02:37:15.476Z,80.50
2019-04-25T02:39:46.618Z,80.78
2019-04-25T02:42:18.813Z,81.09
2019-04-25T02:45:00.610Z,80.90
2019-04-25T02:47:55.071Z,80.48
2019-04-25T02:50:34.354Z,79.97
2019-04-25T02:53:24.414Z,80.60
2019-04-25T02:55:56.685Z,80.37
2019-04-25T02:58:28.754Z,80.38
2019-04-25T03:01:10.732Z,80.54
2019-04-25T03:03:34.756Z,80.33
2019-04-25T03:06:09.271Z,80.29
2019-04-25T03:08:39.578Z,80.40
2019-04-25T03:11:10.862Z,80.02
2019-04-25T03:13:44.290Z,80.08
2019-04-25T03:16:17.923Z,80.14
2019-04-25T03:19:09.299Z,80.63
2019-04-25T03:21:45.180Z,80.85
2019-04-25T03:24:19.105Z,80.91
2019-04-25T03:26:53.213Z,81.12
2019-04-25T03:29:24.828Z,81.21
2019-04-25T03:31:56.414Z,81.13
2019-04-25T03:34:27.695Z,81.30
2019-04-25T03:36:58.937Z,80.88
2019-04-25T03:39:30.103Z,80.66
2019-04-25T03:42:01.357Z,80.00
2019-04-25T03:44:33.762Z,78.93
2019-04-25T03:47:06.454Z,78.27
2019-04-25T03:49:37.979Z,77.69
2019-04-25T03:52:10.053Z,77.79
2019-04-25T03:54:41.263Z,77.94
2019-04-25T03:57:14.478Z,78.23
2019-04-25T03:59:45.440Z,77.14
2019-04-25T04:02:16.654Z,77.14
2019-04-25T04:04:47.966Z,77.02
2019-04-25T04:07:19.197Z,77.21
2019-04-25T04:09:50.471Z,77.28
2019-04-25T04:12:21.653Z,76.58
2019-04-25T04:14:53.778Z,75.70
2019-04-25T04:17:34.646Z,75.29
2019-04-25T04:20:40.470Z,74.99
2019-04-25T04:23:28.748Z,74.89
2019-04-25T04:26:00.140Z,75.90
2019-04-25T04:28:31.450Z,74.36
2019-04-25T04:31:03.683Z,74.95
2019-04-25T04:33:37.942Z,74.39
2019-04-25T04:36:09.085Z,74.51
2019-04-25T04:38:40.347Z,73.83
2019-04-25T04:41:11.598Z,73.88
2019-04-25T04:43:44.106Z,73.92
2019-04-25T04:46:17.174Z,74.73
2019-04-25T04:48:48.337Z,74.08
2019-04-25T04:51:19.546Z,75.35
2019-04-25T04:53:50.830Z,75.17
2019-04-25T04:56:21.947Z,74.50
2019-04-25T04:58:53.938Z,73.50
2019-04-25T05:01:26.963Z,74.79
2019-04-25T05:04:19.987Z,72.81
2019-04-25T05:07:06.548Z,71.95
2019-04-25T05:09:37.817Z,72.56
2019-04-25T05:12:09.053Z,71.84
2019-04-25T05:14:40.348Z,71.44
2019-04-25T05:17:12.214Z,70.83
2019-04-25T05:19:43.878Z,70.26
2019-04-25T05:22:16.047Z,71.07
2019-04-25T05:24:47.999Z,69.17
2019-04-25T05:27:32.268Z,69.08
2019-04-25T05:29:53.876Z,69.66
2019-04-25T05:32:25.292Z,67.47
2019-04-25T05:34:56.442Z,66.58
2019-04-25T05:37:27.691Z,66.37
2019-04-25T05:39:58.937Z,65.69
2019-04-25T05:42:49.634Z,65.97
2019-04-25T05:45:23.814Z,64.13
2019-04-25T05:47:55.566Z,63.73
2019-04-25T05:50:26.832Z,61.58
2019-04-25T05:52:57.990Z,59.65
2019-04-25T05:55:29.319Z,56.47
2019-04-25T05:58:00.551Z,52.07
2019-04-25T06:00:31.844Z,52.26
2019-04-25T06:03:03.616Z,51.46
2019-04-25T06:05:35.069Z,49.62
2019-04-25T06:08:06.304Z,47.43
2019-04-25T06:10:56.440Z,46.77
2019-04-25T06:13:45.193Z,48.11
2019-04-25T06:16:35.153Z,48.79
2019-04-25T06:19:26.450Z,51.11
2019-04-25T06:21:58.480Z,50.44
2019-04-25T06:24:46.883Z,50.84
2019-04-25T06:27:26.914Z,48.99
2019-04-25T06:30:04.510Z,47.95
2019-04-25T06:32:35.892Z,47.11
2019-04-25T06:35:08.673Z,45.90
2019-04-25T06:37:39.869Z,44.35
2019-04-25T06:40:13.696Z,44.69
2019-04-25T06:42:46.724Z,42.69
2019-04-25T06:45:38.025Z,42.28
2019-04-25T06:48:40.263Z,43.70
2019-04-25T06:51:11.497Z,45.00
2019-04-25T06:53:43.616Z,46.28
2019-04-25T06:56:15.124Z,46.31
2019-04-25T06:58:46.366Z,44.44
2019-04-25T07:01:17.638Z,45.89
2019-04-25T07:03:48.920Z,46.56
2019-04-25T07:06:20.168Z,47.58
2019-04-25T07:08:51.460Z,49.64
2019-04-25T07:11:24.863Z,49.52
2019-04-25T07:13:55.663Z,47.44
2019-04-25T07:16:27.289Z,47.33
2019-04-25T07:18:58.507Z,47.26
2019-04-25T07:21:30.262Z,45.04
2019-04-25T07:24:01.651Z,40.42
2019-04-25T07:27:07.199Z,43.11
2019-04-25T07:30:06.283Z,41.45
2019-04-25T07:32:43.873Z,43.37
2019-04-25T07:35:15.394Z,43.14
2019-04-25T07:37:46.706Z,41.64
2019-04-25T07:40:19.908Z,42.89
2019-04-25T07:42:51.170Z,42.51
2019-04-25T07:45:23.831Z,43.41
2019-04-25T07:47:55.292Z,43.53
2019-04-25T07:50:27.009Z,42.84
2019-04-25T07:52:58.404Z,45.36
2019-04-25T07:55:29.705Z,45.02
2019-04-25T07:58:00.927Z,45.85
2019-04-25T08:00:35.167Z,47.06
2019-04-25T08:03:05.771Z,48.11
2019-04-25T08:05:37.893Z,46.92
2019-04-25T08:08:09.364Z,46.42
2019-04-25T08:11:07.713Z,46.03
2019-04-25T08:13:58.686Z,46.05
2019-04-25T08:16:40.948Z,45.74
2019-04-25T08:19:13.568Z,44.12
2019-04-25T08:21:45.168Z,44.37
2019-04-25T08:24:17.499Z,43.28
2019-04-25T08:26:48.950Z,43.86
2019-04-25T08:29:22.889Z,43.43
2019-04-25T08:31:53.681Z,41.87
2019-04-25T08:34:25.048Z,41.20
2019-04-25T08:36:56.308Z,40.50
2019-04-25T08:39:27.567Z,39.38
2019-04-25T08:41:58.701Z,38.31
2019-04-25T08:44:29.945Z,38.91
2019-04-25T08:47:01.276Z,38.15
2019-04-25T08:49:57.059Z,39.32
2019-04-25T08:52:28.331Z,40.58
2019-04-25T08:55:14.288Z,41.48
2019-04-25T08:58:06.742Z,41.57
2019-04-25T09:01:00.696Z,43.23
2019-04-25T09:03:32.828Z,46.47
2019-04-25T09:06:05.133Z,45.33
2019-04-25T09:08:38.131Z,43.54
2019-04-25T09:11:09.265Z,43.58
2019-04-25T09:13:40.968Z,43.40
2019-04-25T09:16:13.786Z,43.76
2019-04-25T09:18:45.586Z,45.95
2019-04-25T09:21:17.678Z,44.45
2019-04-25T09:23:48.984Z,44.85
2019-04-25T09:26:20.280Z,45.07
2019-04-25T09:28:51.605Z,45.78
2019-04-25T09:31:23.585Z,44.84
2019-04-25T09:33:56.744Z,43.54
2019-04-25T09:36:27.932Z,43.69
2019-04-25T09:39:03.766Z,42.53
2019-04-25T09:41:35.990Z,42.33
2019-04-25T09:44:09.081Z,43.54
2019-04-25T09:46:40.358Z,41.58
2019-04-25T09:49:20.503Z,40.43
2019-04-25T09:52:13.464Z,39.91
2019-04-25T09:54:55.446Z,39.99
2019-04-25T09:57:45.817Z,39.97
2019-04-25T10:00:30.643Z,41.54
2019-04-25T10:03:07.217Z,42.60
2019-04-25T10:05:38.808Z,42.76
2019-04-25T10:08:10.273Z,43.45
2019-04-25T10:10:42.451Z,43.92
2019-04-25T10:13:14.728Z,43.13
2019-04-25T10:16:12.501Z,43.26
2019-04-25T10:18:45.919Z,43.10
2019-04-25T10:21:20.202Z,43.26
2019-04-25T10:23:51.561Z,43.09
2019-04-25T10:26:24.449Z,42.67
2019-04-25T10:28:55.865Z,41.87
2019-04-25T10:31:33.945Z,42.30
2019-04-25T10:34:05.690Z,41.48
2019-04-25T10:36:39.831Z,43.48
2019-04-25T10:39:11.764Z,43.53
2019-04-25T10:41:44.849Z,43.92
2019-04-25T10:44:16.146Z,43.38
2019-04-25T10:46:48.489Z,43.44
2019-04-25T10:49:19.852Z,42.70
2019-04-25T10:51:51.126Z,43.12
2019-04-25T10:54:22.369Z,43.49
2019-04-25T10:56:53.857Z,44.36
2019-04-25T10:59:25.163Z,44.35
2019-04-25T11:01:56.453Z,43.54
2019-04-25T11:04:39.641Z,41.50
2019-04-25T11:07:11.521Z,41.41
2019-04-25T11:09:44.942Z,40.56
2019-04-25T11:12:15.705Z,39.22
2019-04-25T11:14:47.097Z,38.89
2019-04-25T11:17:19.099Z,40.08
2019-04-25T11:19:51.179Z,39.70
2019-04-25T11:22:24.036Z,41.19
2019-04-25T11:24:55.698Z,39.62
2019-04-25T11:27:28.330Z,39.04
2019-04-25T11:30:10.740Z,38.84
2019-04-25T11:32:38.531Z,38.82
2019-04-25T11:35:09.832Z,39.74
2019-04-25T11:37:41.125Z,40.68
2019-04-25T11:40:23.519Z,39.56
2019-04-25T11:42:54.836Z,39.16
2019-04-25T11:45:26.217Z,40.08
2019-04-25T11:47:58.032Z,40.25
2019-04-25T11:50:29.248Z,38.69
2019-04-25T11:53:00.949Z,39.41
2019-04-25T11:55:32.350Z,38.62
2019-04-25T11:58:04.217Z,39.28
2019-04-25T12:00:35.666Z,39.57
2019-04-25T12:03:07.854Z,39.10
2019-04-25T12:05:39.339Z,38.48
2019-04-25T12:08:11.195Z,38.53
2019-04-25T12:10:43.143Z,38.14
2019-04-25T12:13:15.505Z,37.68
2019-04-25T12:15:47.095Z,36.22
2019-04-25T12:18:18.564Z,36.23
2019-04-25T12:20:51.086Z,36.80
2019-04-25T12:23:23.703Z,39.09
2019-04-25T12:25:58.137Z,38.75
2019-04-25T12:28:29.529Z,38.64
2019-04-25T12:31:00.835Z,39.36
2019-04-25T12:33:32.284Z,39.36
2019-04-25T12:36:03.688Z,38.08
2019-04-25T12:38:39.649Z,38.85
2019-04-25T12:41:17.537Z,37.62
2019-04-25T12:43:58.668Z,39.11
2019-04-25T12:46:43.728Z,39.76
2019-04-25T12:49:18.522Z,38.24
2019-04-25T12:51:50.107Z,37.31
2019-04-25T12:54:21.288Z,38.05
2019-04-25T12:56:55.284Z,36.52
2019-04-25T12:59:26.515Z,35.87
2019-04-25T13:01:57.784Z,36.63
2019-04-25T13:04:29.107Z,37.08
2019-04-25T13:07:00.412Z,35.40
2019-04-25T13:09:31.806Z,37.26
2019-04-25T13:12:04.370Z,36.22
2019-04-25T13:14:35.824Z,33.25
2019-04-25T13:17:08.688Z,33.67
2019-04-25T13:19:40.312Z,35.13
2019-04-25T13:22:11.892Z,35.28
2019-04-25T13:24:43.266Z,35.88
2019-04-25T13:27:23.460Z,35.47
2019-04-25T13:30:25.791Z,34.53
2019-04-25T13:33:05.303Z,35.85
2019-04-25T13:35:48.130Z,35.47
2019-04-25T13:38:19.385Z,34.91
2019-04-25T13:40:50.646Z,34.92
2019-04-25T13:43:21.806Z,34.89
2019-04-25T13:45:53.102Z,35.83
2019-04-25T13:48:26.549Z,33.60
2019-04-25T13:50:57.448Z,33.04
2019-04-25T13:53:29.450Z,33.33
2019-04-25T13:56:00.910Z,33.14
2019-04-25T13:58:34.201Z,32.76
2019-04-25T14:01:12.757Z,32.46
2019-04-25T14:03:39.426Z,32.89
2019-04-25T14:06:10.902Z,32.55
2019-04-25T14:08:43.518Z,32.85
2019-04-25T14:11:14.796Z,33.10
2019-04-25T14:13:46.054Z,33.23
2019-04-25T14:16:36.076Z,32.88
2019-04-25T14:19:29.401Z,33.50
2019-04-25T14:22:04.327Z,33.55
2019-04-25T14:24:35.950Z,33.79
2019-04-25T14:27:07.394Z,33.83
2019-04-25T14:29:38.602Z,33.65
2019-04-25T14:32:11.447Z,33.77
2019-04-25T14:34:43.273Z,32.94
2019-04-25T14:37:14.701Z,33.45
2019-04-25T14:39:50.121Z,33.89
2019-04-25T14:42:33.271Z,32.75
2019-04-25T14:45:05.440Z,32.95
2019-04-25T14:47:36.859Z,33.60
2019-04-25T14:50:08.323Z,32.28
2019-04-25T14:52:43.767Z,33.18
2019-04-25T14:55:40.575Z,33.60
2019-04-25T14:58:17.123Z,33.60
2019-04-25T15:00:50.338Z,35.30
2019-04-25T15:03:23.079Z,35.11
2019-04-25T15:05:55.324Z,35.87
2019-04-25T15:08:29.460Z,34.52
2019-04-25T15:11:00.681Z,36.87
2019-04-25T15:13:32.102Z,37.79
2019-04-25T15:16:04.886Z,36.91
2019-04-25T15:19:08.774Z,38.30
2019-04-25T15:21:41.382Z,37.97
2019-04-25T15:24:12.579Z,39.91
2019-04-25T15:26:43.806Z,37.27
2019-04-25T15:29:17.260Z,37.25
2019-04-25T15:31:55.754Z,36.79
2019-04-25T15:34:23.032Z,38.15
2019-04-25T15:36:59.730Z,37.22
2019-04-25T15:39:58.774Z,38.49
2019-04-25T15:42:38.866Z,38.81
2019-04-25T15:45:23.415Z,38.24
2019-04-25T15:47:54.761Z,38.93
2019-04-25T15:50:26.424Z,38.69
2019-04-25T15:52:57.689Z,39.56
2019-04-25T15:55:29.043Z,39.67
2019-04-25T15:58:00.303Z,39.44
2019-04-25T16:00:35.094Z,40.36
2019-04-25T16:03:02.336Z,41.90
2019-04-25T16:10:58.701Z,42.92
2019-04-25T16:13:30.188Z,44.24
2019-04-25T16:16:01.690Z,43.99
2019-04-25T16:18:33.165Z,44.41
2019-04-25T16:21:07.640Z,43.89
2019-04-25T16:23:38.772Z,44.27
2019-04-25T16:26:10.973Z,45.25
2019-04-25T16:28:42.256Z,46.12
2019-04-25T16:31:16.668Z,46.09
2019-04-25T16:33:55.538Z,48.49
2019-04-25T16:36:26.790Z,46.24
2019-04-25T16:38:58.081Z,44.83
2019-04-25T16:41:29.405Z,44.70
2019-04-25T16:44:05.029Z,45.62
2019-04-25T16:46:37.356Z,46.86
2019-04-25T16:49:08.560Z,45.96
2019-04-25T16:51:40.002Z,47.12
2019-04-25T16:54:11.332Z,46.33
2019-04-25T16:56:42.597Z,48.30
2019-04-25T16:59:13.844Z,49.12
2019-04-25T17:01:45.322Z,49.62
2019-04-25T17:04:16.770Z,49.37
2019-04-25T17:06:48.088Z,50.34
2019-04-25T17:09:19.417Z,50.58
2019-04-25T17:11:50.701Z,50.16
2019-04-25T17:14:31.594Z,50.86
2019-04-25T17:17:16.788Z,51.38
2019-04-25T17:19:55.808Z,51.98
2019-04-25T17:22:27.212Z,53.54
2019-04-25T17:24:58.487Z,54.38
2019-04-25T17:27:30.889Z,53.91
2019-04-25T17:30:02.975Z,54.41
2019-04-25T17:32:53.569Z,54.25
2019-04-25T17:35:31.891Z,53.87
2019-04-25T17:38:10.915Z,55.19
2019-04-25T17:40:42.064Z,54.64
2019-04-25T17:43:13.307Z,55.69
2019-04-25T17:45:44.526Z,55.71
2019-04-25T17:48:15.899Z,56.65
2019-04-25T17:50:47.322Z,56.08
2019-04-25T17:53:18.584Z,56.05
2019-04-25T17:55:49.780Z,57.06
2019-04-25T17:58:21.032Z,57.74
2019-04-25T18:00:52.473Z,58.13
2019-04-25T18:03:24.034Z,58.18
2019-04-25T18:05:55.372Z,59.02
2019-04-25T18:08:26.681Z,59.13
2019-04-25T18:10:57.932Z,57.27
2019-04-25T18:13:29.246Z,58.02
2019-04-25T18:16:28.549Z,58.47
2019-04-25T18:19:21.639Z,58.00
2019-04-25T18:21:54.484Z,57.71
2019-04-25T18:25:03.017Z,56.93
2019-04-25T18:27:58.710Z,55.97
2019-04-25T18:30:30.146Z,57.11
2019-04-25T18:33:10.724Z,54.38
2019-04-25T18:35:42.659Z,53.22
2019-04-25T18:38:33.230Z,52.78
2019-04-25T18:41:12.411Z,53.33
2019-04-25T18:43:49.956Z,52.94
2019-04-25T18:46:26.209Z,53.34
2019-04-25T18:48:57.557Z,53.70
2019-04-25T18:51:29.497Z,53.41
2019-04-25T18:54:15.988Z,54.14
2019-04-25T18:57:04.915Z,55.01
2019-04-25T18:59:48.293Z,56.30
2019-04-25T19:02:38.533Z,58.21
2019-04-25T19:05:50.375Z,58.24
2019-04-25T19:08:21.772Z,59.13
2019-04-25T19:10:52.958Z,59.19
2019-04-25T19:13:24.322Z,60.20
2019-04-25T19:15:55.568Z,60.90
2019-04-25T19:18:26.902Z,60.95
2019-04-25T19:20:58.200Z,61.35
2019-04-25T19:23:29.516Z,62.29
2019-04-25T19:26:00.863Z,61.43
2019-04-25T19:28:32.188Z,62.12
2019-04-25T19:31:03.467Z,62.87
2019-04-25T19:33:36.139Z,63.09
2019-04-25T19:36:07.862Z,66.20
2019-04-25T19:38:39.558Z,67.40
2019-04-25T19:41:20.216Z,69.22
2019-04-25T19:44:01.585Z,71.12
2019-04-25T19:46:41.381Z,72.22
2019-04-25T19:49:14.392Z,74.01
2019-04-25T19:51:47.249Z,74.79
2019-04-25T19:54:18.662Z,76.29
2019-04-25T19:56:51.753Z,77.29
2019-04-25T19:59:23.122Z,78.11
2019-04-25T20:01:55.984Z,79.15
2019-04-25T20:04:44.383Z,80.06
2019-04-25T20:07:24.525Z,80.03
2019-04-25T20:10:26.693Z,80.50
2019-04-25T20:12:57.998Z,80.91
2019-04-25T20:15:29.418Z,79.67
2019-04-25T20:18:00.645Z,78.34
2019-04-25T20:20:32.070Z,79.20
2019-04-25T20:23:03.407Z,79.33
2019-04-25T20:25:34.716Z,81.22
2019-04-25T20:28:05.958Z,82.10
2019-04-25T20:30:37.214Z,82.64
2019-04-25T20:33:08.421Z,83.26
2019-04-25T20:35:42.172Z,83.80
2019-04-25T20:38:13.650Z,84.00
2019-04-25T20:40:45.176Z,84.41
2019-04-25T20:43:17.646Z,84.67
2019-04-25T20:45:48.885Z,84.64
2019-04-25T20:48:20.235Z,84.35
2019-04-25T20:50:54.476Z,83.26
2019-04-25T20:53:25.800Z,83.00
2019-04-25T20:55:57.106Z,82.42
2019-04-25T20:58:28.290Z,82.21
2019-04-25T21:01:01.411Z,82.67
2019-04-25T21:03:32.652Z,82.11
2019-04-25T21:06:09.231Z,80.98
2019-04-25T21:08:40.581Z,81.12
2019-04-25T21:11:11.812Z,79.89
2019-04-25T21:14:03.244Z,79.96
2019-04-25T21:17:00.051Z,80.86
2019-04-25T21:19:35.489Z,81.20
2019-04-25T21:22:06.769Z,82.37
2019-04-25T21:24:38.020Z,82.68
2019-04-25T21:27:09.328Z,82.98
2019-04-25T21:29:40.573Z,83.09
2019-04-25T21:32:11.849Z,83.64
2019-04-25T21:34:43.304Z,84.48
2019-04-25T21:37:15.085Z,85.32
2019-04-25T21:40:10.317Z,85.73
2019-04-25T21:42:56.210Z,85.86
2019-04-25T21:45:28.143Z,85.92
2019-04-25T21:47:59.896Z,84.70
2019-04-25T21:50:31.955Z,84.71
2019-04-25T21:53:06.149Z,83.98
2019-04-25T21:55:38.986Z,83.63
2019-04-25T21:58:10.465Z,83.92
2019-04-25T22:01:04.496Z,84.25
2019-04-25T22:03:36.028Z,84.28
2019-04-25T22:06:08.048Z,85.10
2019-04-25T22:08:39.298Z,85.21
2019-04-25T22:11:10.549Z,85.54
2019-04-25T22:13:42.115Z,85.77
2019-04-25T22:16:13.668Z,85.95
2019-04-25T22:18:45.119Z,86.05
2019-04-25T22:21:17.720Z,86.03
2019-04-25T22:23:49.396Z,85.34
2019-04-25T22:26:20.680Z,84.75
2019-04-25T22:28:52.260Z,84.58
2019-04-25T22:31:28.659Z,83.59
2019-04-25T22:34:14.052Z,83.33
2019-04-25T22:36:45.456Z,82.17
2019-04-25T22:39:17.006Z,80.79
2019-04-25T22:41:50.099Z,80.32
2019-04-25T22:44:22.573Z,80.29
2019-04-25T22:46:54.215Z,80.19
2019-04-25T22:49:25.453Z,80.45
2019-04-25T22:51:56.643Z,80.36
2019-04-25T22:54:29.713Z,80.77
2019-04-25T22:57:01.807Z,81.12
2019-04-25T22:59:33.852Z,80.56
2019-04-25T23:02:29.795Z,81.89
2019-04-25T23:05:16.354Z,81.45
2019-04-25T23:07:47.628Z,81.85
2019-04-25T23:10:19.176Z,82.09
2019-04-25T23:12:50.331Z,81.39
2019-04-25T23:15:21.646Z,81.50
2019-04-25T23:17:53.225Z,81.76
2019-04-25T23:20:24.780Z,81.78
2019-04-25T23:22:56.029Z,81.64
2019-04-25T23:25:33.046Z,81.67
2019-04-25T23:28:24.025Z,81.67
2019-04-25T23:31:06.885Z,81.90
2019-04-25T23:33:38.057Z,82.01
2019-04-25T23:36:09.491Z,82.31
2019-04-25T23:38:40.699Z,82.08
2019-04-25T23:41:12.194Z,79.70
2019-04-25T23:43:43.555Z,79.31
2019-04-25T23:46:14.742Z,78.67
2019-04-25T23:48:46.467Z,79.59
2019-04-25T23:51:17.669Z,80.60
2019-04-25T23:53:49.166Z,81.19
2019-04-25T23:56:20.265Z,81.74
2019-04-25T23:58:51.627Z,82.34
